createdAt,value
2018-10-17T00:02:26.087Z,20.70
2018-10-17T00:05:59.303Z,19.43
2018-10-17T00:09:32.508Z,23.00
2018-10-17T00:13:05.786Z,21.00
2018-10-17T00:16:38.946Z,22.00
2018-10-17T00:20:12.156Z,22.67
2018-10-17T00:23:45.391Z,24.23
2018-10-17T00:27:18.625Z,24.07
2018-10-17T00:30:51.840Z,23.20
2018-10-17T00:34:25.060Z,22.90
2018-10-17T00:37:58.278Z,22.37
2018-10-17T00:41:31.497Z,22.13
2018-10-17T00:45:05.207Z,20.67
2018-10-17T00:48:38.415Z,20.30
2018-10-17T00:52:11.642Z,20.40
2018-10-17T00:55:44.850Z,21.67
2018-10-17T00:59:18.081Z,21.07
2018-10-17T01:02:51.307Z,23.50
2018-10-17T01:06:24.535Z,21.90
2018-10-17T01:09:57.769Z,22.10
2018-10-17T01:13:30.993Z,20.20
2018-10-17T01:17:04.337Z,23.00
2018-10-17T01:20:37.584Z,22.30
2018-10-17T01:24:10.829Z,21.60
2018-10-17T01:27:44.067Z,21.97
2018-10-17T01:31:17.384Z,22.93
2018-10-17T01:34:50.543Z,23.23
2018-10-17T01:38:23.785Z,20.20
2018-10-17T01:41:57.027Z,21.23
2018-10-17T01:45:30.267Z,22.33
2018-10-17T01:49:03.534Z,20.80
2018-10-17T01:52:36.759Z,21.40
2018-10-17T01:56:09.991Z,22.30
2018-10-17T01:59:43.221Z,20.30
2018-10-17T02:03:16.444Z,19.87
2018-10-17T02:06:49.671Z,20.80
2018-10-17T02:10:22.914Z,22.60
2018-10-17T02:13:56.153Z,21.73
2018-10-17T02:17:29.388Z,22.77
2018-10-17T02:21:02.632Z,23.80
2018-10-17T02:24:35.868Z,24.10
2018-10-17T02:28:09.142Z,24.77
2018-10-17T02:31:42.381Z,25.40
2018-10-17T02:35:16.952Z,22.60
2018-10-17T02:38:50.105Z,21.77
2018-10-17T02:42:23.348Z,21.30
2018-10-17T02:45:56.571Z,23.50
2018-10-17T02:49:29.804Z,23.03
2018-10-17T02:53:03.107Z,22.73
2018-10-17T02:56:36.274Z,21.47
2018-10-17T03:00:09.922Z,22.30
2018-10-17T03:03:43.164Z,21.03
2018-10-17T03:07:16.406Z,23.63
2018-10-17T03:10:49.626Z,22.00
2018-10-17T03:14:22.859Z,25.53
2018-10-17T03:17:56.095Z,22.20
2018-10-17T03:21:29.328Z,22.37
2018-10-17T03:25:02.583Z,23.00
2018-10-17T03:28:35.811Z,21.20
2018-10-17T03:32:09.050Z,20.63
2018-10-17T03:35:42.349Z,21.77
2018-10-17T03:39:15.538Z,23.60
2018-10-17T03:42:48.769Z,23.50
2018-10-17T03:46:22.009Z,21.70
2018-10-17T03:49:55.329Z,24.30
2018-10-17T03:53:28.522Z,29.33
2018-10-17T03:57:01.848Z,22.20
2018-10-17T04:00:35.072Z,21.37
2018-10-17T04:04:08.304Z,25.20
2018-10-17T04:07:41.519Z,24.97
2018-10-17T04:11:14.783Z,22.87
2018-10-17T04:14:47.995Z,24.13
2018-10-17T04:18:21.218Z,20.77
2018-10-17T04:21:54.460Z,23.40
2018-10-17T04:25:27.706Z,22.17
2018-10-17T04:29:00.977Z,21.50
2018-10-17T04:32:34.168Z,20.33
2018-10-17T04:36:07.574Z,18.10
2018-10-17T04:39:40.787Z,20.70
2018-10-17T04:43:14.098Z,19.60
2018-10-17T04:46:47.249Z,21.80
2018-10-17T04:50:20.486Z,25.53
2018-10-17T04:53:53.724Z,23.13
2018-10-17T04:57:26.956Z,26.43
2018-10-17T05:01:00.254Z,23.67
2018-10-17T05:04:33.513Z,22.13
2018-10-17T05:08:06.719Z,24.07
2018-10-17T05:11:40.464Z,22.80
2018-10-17T05:15:13.706Z,21.53
2018-10-17T05:18:46.939Z,22.83
2018-10-17T05:22:20.157Z,24.93
2018-10-17T05:25:53.425Z,23.47
2018-10-17T05:29:26.653Z,23.67
2018-10-17T05:32:59.908Z,23.70
2018-10-17T05:36:33.218Z,24.60
2018-10-17T05:40:06.521Z,25.77
2018-10-17T05:43:39.753Z,22.93
2018-10-17T05:47:13.507Z,25.73
2018-10-17T05:50:46.761Z,24.40
2018-10-17T05:54:20.354Z,25.60
2018-10-17T05:57:54.200Z,23.87
2018-10-17T06:01:27.519Z,23.30
2018-10-17T06:05:00.779Z,23.10
2018-10-17T06:08:33.995Z,24.47
2018-10-17T06:12:07.231Z,25.10
2018-10-17T06:15:40.460Z,24.47
2018-10-17T06:19:14.292Z,27.20
2018-10-17T06:22:47.461Z,23.37
2018-10-17T06:26:20.907Z,26.47
2018-10-17T06:29:54.151Z,27.07
2018-10-17T06:33:27.380Z,27.13
2018-10-17T06:37:00.655Z,24.17
2018-10-17T06:40:33.880Z,28.10
2018-10-17T06:44:07.565Z,26.87
2018-10-17T06:47:40.775Z,25.53
2018-10-17T06:51:14.101Z,23.07
2018-10-17T06:54:47.312Z,25.07
2018-10-17T06:58:20.551Z,29.90
2018-10-17T07:01:53.837Z,25.03
2018-10-17T07:05:27.006Z,31.50
2018-10-17T07:09:00.244Z,28.20
2018-10-17T07:12:33.486Z,28.27
2018-10-17T07:16:06.782Z,28.03
2018-10-17T07:19:39.997Z,28.10
2018-10-17T07:23:13.305Z,29.40
2018-10-17T07:26:46.485Z,30.40
2018-10-17T07:30:19.768Z,28.80
2018-10-17T07:33:53.000Z,26.00
2018-10-17T07:37:26.238Z,31.53
2018-10-17T07:40:59.499Z,28.03
2018-10-17T07:44:32.707Z,30.63
2018-10-17T07:48:05.996Z,28.67
2018-10-17T07:51:39.264Z,29.33
2018-10-17T07:55:12.841Z,26.00
2018-10-17T07:58:46.070Z,28.23
2018-10-17T08:02:19.299Z,32.20
2018-10-17T08:05:52.559Z,28.27
2018-10-17T08:09:25.780Z,33.13
2018-10-17T08:12:59.031Z,38.00
2018-10-17T08:16:32.257Z,34.03
2018-10-17T08:20:07.357Z,29.87
2018-10-17T08:23:40.576Z,31.50
2018-10-17T08:27:13.855Z,29.77
2018-10-17T08:30:47.059Z,34.40
2018-10-17T08:34:20.303Z,29.83
2018-10-17T08:37:53.890Z,33.83
2018-10-17T08:41:26.765Z,29.13
2018-10-17T08:45:00.152Z,27.73
2018-10-17T08:48:33.319Z,34.40
2018-10-17T08:52:06.560Z,34.60
2018-10-17T08:55:39.793Z,37.20
2018-10-17T08:59:13.469Z,34.67
2018-10-17T09:02:46.692Z,35.30
2018-10-17T09:06:20.011Z,39.07
2018-10-17T09:09:53.163Z,37.97
2018-10-17T09:13:26.462Z,36.20
2018-10-17T09:16:59.647Z,36.57
2018-10-17T09:20:33.224Z,40.70
2018-10-17T09:24:06.173Z,39.00
2018-10-17T09:27:39.368Z,37.20
2018-10-17T09:31:12.601Z,38.43
2018-10-17T09:34:45.845Z,36.40
2018-10-17T09:38:19.075Z,38.63
2018-10-17T09:41:52.357Z,36.37
2018-10-17T09:45:25.557Z,39.10
2018-10-17T09:48:58.784Z,36.90
2018-10-17T09:52:31.997Z,37.47
2018-10-17T09:56:05.292Z,35.90
2018-10-17T09:59:38.526Z,39.20
2018-10-17T10:03:11.749Z,39.93
2018-10-17T10:06:44.967Z,38.83
2018-10-17T10:10:18.268Z,36.53
2018-10-17T10:13:51.460Z,40.13
2018-10-17T10:17:24.732Z,39.63
2018-10-17T10:20:57.930Z,44.40
2018-10-17T10:24:31.162Z,40.27
2018-10-17T10:28:04.544Z,35.80
2018-10-17T10:31:37.682Z,42.83
2018-10-17T10:35:10.923Z,41.27
2018-10-17T10:38:44.165Z,38.87
2018-10-17T10:42:17.499Z,39.03
2018-10-17T10:45:50.645Z,39.80
2018-10-17T10:49:23.873Z,44.23
2018-10-17T10:52:57.134Z,41.40
2018-10-17T10:56:30.341Z,41.53
2018-10-17T11:00:03.636Z,43.60
2018-10-17T11:03:36.873Z,42.57
2018-10-17T11:07:10.111Z,41.40
2018-10-17T11:10:43.340Z,39.97
2018-10-17T11:14:16.793Z,35.00
2018-10-17T11:17:49.824Z,37.53
2018-10-17T11:21:23.053Z,38.07
2018-10-17T11:24:56.269Z,37.50
2018-10-17T11:28:29.492Z,35.10
2018-10-17T11:32:02.794Z,38.07
2018-10-17T11:35:35.968Z,37.00
2018-10-17T11:39:10.037Z,36.97
2018-10-17T11:42:43.226Z,37.83
2018-10-17T11:46:16.466Z,35.97
2018-10-17T11:49:49.716Z,38.47
2018-10-17T11:53:22.953Z,40.03
2018-10-17T11:56:56.215Z,40.13
2018-10-17T12:00:29.437Z,39.37
2018-10-17T12:04:03.019Z,42.90
2018-10-17T12:07:35.944Z,37.57
2018-10-17T12:11:09.212Z,33.83
2018-10-17T12:14:42.460Z,37.37
2018-10-17T12:18:15.796Z,36.00
2018-10-17T12:21:48.944Z,35.83
2018-10-17T12:25:22.176Z,32.23
2018-10-17T12:28:55.418Z,32.20
2018-10-17T12:32:28.644Z,31.50
2018-10-17T12:36:01.901Z,27.73
2018-10-17T12:39:35.179Z,26.57
2018-10-17T12:43:08.356Z,28.40
2018-10-17T12:46:41.594Z,25.43
2018-10-17T12:50:14.863Z,24.93
2018-10-17T12:53:48.252Z,25.57
2018-10-17T12:57:21.477Z,21.83
2018-10-17T13:00:54.931Z,23.33
2018-10-17T13:04:28.128Z,23.47
2018-10-17T13:08:01.372Z,22.73
2018-10-17T13:11:34.645Z,22.17
2018-10-17T13:15:09.075Z,23.27
2018-10-17T13:18:42.235Z,22.40
2018-10-17T13:22:15.464Z,24.30
2018-10-17T13:25:48.697Z,30.30
2018-10-17T13:29:21.933Z,26.80
2018-10-17T13:32:55.145Z,26.20
2018-10-17T13:36:28.379Z,25.33
2018-10-17T13:40:01.636Z,26.40
2018-10-17T13:43:34.877Z,25.83
2018-10-17T13:47:08.147Z,26.07
2018-10-17T13:50:41.361Z,22.13
2018-10-17T13:54:14.599Z,26.03
2018-10-17T13:57:47.922Z,27.43
2018-10-17T14:01:21.065Z,24.23
2018-10-17T14:04:54.504Z,25.30
2018-10-17T14:08:27.741Z,23.20
2018-10-17T14:12:00.994Z,22.07
2018-10-17T14:15:34.230Z,17.17
2018-10-17T14:19:07.449Z,18.23
2018-10-17T14:22:40.690Z,27.20
2018-10-17T14:26:13.937Z,28.00
2018-10-17T14:29:47.402Z,27.50
2018-10-17T14:33:20.643Z,30.00
2018-10-17T14:36:53.900Z,28.57
2018-10-17T14:40:27.128Z,30.50
2018-10-17T14:44:00.372Z,29.80
2018-10-17T14:47:33.613Z,27.30
2018-10-17T14:51:06.882Z,28.53
2018-10-17T14:54:40.136Z,25.30
2018-10-17T14:58:13.405Z,26.90
2018-10-17T15:01:46.627Z,24.90
2018-10-17T15:05:19.996Z,23.67
2018-10-17T15:08:53.152Z,24.37
2018-10-17T15:12:26.366Z,25.27
2018-10-17T15:15:59.595Z,25.93
2018-10-17T15:19:32.824Z,26.13
2018-10-17T15:23:06.080Z,24.70
2018-10-17T15:26:39.312Z,24.50
2018-10-17T15:30:12.588Z,29.17
2018-10-17T15:33:45.790Z,25.50
2018-10-17T15:37:19.048Z,26.53
2018-10-17T15:40:52.277Z,24.53
2018-10-17T15:44:25.500Z,25.13
2018-10-17T15:47:58.781Z,25.10
2018-10-17T15:51:32.004Z,23.43
2018-10-17T15:55:05.601Z,23.47
2018-10-17T15:58:38.844Z,26.57
2018-10-17T16:02:12.149Z,25.97
2018-10-17T16:05:45.338Z,24.60
2018-10-17T16:09:18.585Z,27.93
2018-10-17T16:12:51.820Z,37.70
2018-10-17T16:16:25.065Z,32.40
2018-10-17T16:19:58.377Z,29.67
2018-10-17T16:23:31.596Z,29.63
2018-10-17T16:27:05.028Z,23.47
2018-10-17T16:30:38.310Z,25.80
2018-10-17T16:34:11.491Z,28.33
2018-10-17T16:37:44.724Z,29.87
2018-10-17T16:41:18.038Z,39.10
2018-10-17T16:44:51.208Z,30.70
2018-10-17T16:48:24.443Z,29.27
2018-10-17T16:51:57.703Z,27.47
2018-10-17T16:55:30.948Z,26.60
2018-10-17T16:59:04.181Z,54.63
2018-10-17T17:02:37.437Z,49.73
2018-10-17T17:06:10.791Z,37.07
2018-10-17T17:09:43.917Z,33.87
2018-10-17T17:13:17.176Z,26.53
2018-10-17T17:16:50.401Z,30.50
2018-10-17T17:20:23.639Z,29.13
2018-10-17T17:23:56.901Z,28.23
2018-10-17T17:27:30.140Z,27.27
2018-10-17T17:31:03.372Z,29.13
2018-10-17T17:34:36.979Z,28.97
2018-10-17T17:38:10.227Z,30.80
2018-10-17T17:41:43.473Z,27.90
2018-10-17T17:45:16.710Z,24.97
2018-10-17T17:48:49.940Z,28.30
2018-10-17T17:52:23.236Z,28.90
2018-10-17T17:55:56.450Z,25.57
2018-10-17T17:59:29.703Z,24.23
2018-10-17T18:03:02.925Z,24.77
2018-10-17T18:06:36.211Z,32.70
2018-10-17T18:10:09.588Z,27.80
2018-10-17T18:13:43.100Z,29.40
2018-10-17T18:17:16.787Z,30.13
2018-10-17T18:20:50.040Z,29.93
2018-10-17T18:24:23.301Z,28.23
2018-10-17T18:27:57.654Z,31.90
2018-10-17T18:31:31.376Z,31.57
2018-10-17T18:35:05.392Z,31.13
2018-10-17T18:38:38.652Z,27.40
2018-10-17T18:42:11.917Z,27.47
2018-10-17T18:45:45.595Z,25.40
2018-10-17T18:49:18.812Z,28.20
2018-10-17T18:52:52.053Z,23.33
2018-10-17T18:56:25.305Z,25.50
2018-10-17T18:59:58.560Z,26.70
2018-10-17T19:03:31.812Z,24.90
2018-10-17T19:07:06.026Z,27.33
2018-10-17T19:10:39.253Z,29.23
2018-10-17T19:14:12.504Z,23.40
2018-10-17T19:17:47.276Z,30.30
2018-10-17T19:21:20.638Z,31.63
2018-10-17T19:24:54.088Z,33.93
2018-10-17T19:28:27.357Z,30.57
2018-10-17T19:32:00.789Z,29.97
2018-10-17T19:35:34.067Z,28.33
2018-10-17T19:39:09.141Z,25.57
2018-10-17T19:42:42.369Z,25.43
2018-10-17T19:46:15.636Z,24.40
2018-10-17T19:49:49.201Z,27.00
2018-10-17T19:53:22.574Z,24.63
2018-10-17T19:56:55.848Z,25.80
2018-10-17T20:00:29.081Z,38.40
2018-10-17T20:04:02.341Z,29.43
2018-10-17T20:07:35.655Z,31.80
2018-10-17T20:11:08.873Z,28.27
2018-10-17T20:14:42.146Z,32.90
2018-10-17T20:18:15.457Z,33.10
2018-10-17T20:21:49.464Z,31.57
2018-10-17T20:25:23.065Z,30.77
2018-10-17T20:28:58.534Z,32.30
2018-10-17T20:32:32.657Z,31.17
2018-10-17T20:36:06.893Z,27.83
2018-10-17T20:39:40.379Z,31.20
2018-10-17T20:43:13.779Z,29.73
2018-10-17T20:46:47.878Z,28.87
2018-10-17T20:50:21.275Z,28.93
2018-10-17T20:53:54.627Z,31.20
2018-10-17T20:57:28.017Z,30.73
2018-10-17T21:01:01.399Z,30.30
2018-10-17T21:04:35.839Z,29.47
2018-10-17T21:08:09.721Z,30.00
2018-10-17T21:11:43.163Z,26.47
2018-10-17T21:15:16.624Z,27.60
2018-10-17T21:18:50.604Z,30.07
2018-10-17T21:22:24.629Z,27.13
2018-10-17T21:25:58.325Z,28.33
2018-10-17T21:29:31.916Z,28.70
2018-10-17T21:33:05.460Z,27.70
2018-10-17T21:36:38.733Z,30.93
2018-10-17T21:40:12.033Z,28.23
2018-10-17T21:43:45.259Z,31.70
2018-10-17T21:47:18.563Z,26.73
2018-10-17T21:50:51.761Z,24.37
2018-10-17T21:54:25.006Z,28.77
2018-10-17T21:57:58.248Z,26.67
2018-10-17T22:01:31.491Z,28.97
2018-10-17T22:05:06.342Z,27.93
2018-10-17T22:08:39.580Z,31.20
2018-10-17T22:12:12.836Z,29.47
2018-10-17T22:15:46.084Z,30.10
2018-10-17T22:19:19.559Z,32.37
2018-10-17T22:22:52.585Z,29.80
2018-10-17T22:26:25.848Z,31.77
2018-10-17T22:29:59.134Z,29.27
2018-10-17T22:33:32.379Z,31.33
2018-10-17T22:37:06.443Z,29.53
2018-10-17T22:40:39.688Z,51.57
2018-10-17T22:44:13.013Z,35.50
2018-10-17T22:47:46.229Z,31.40
2018-10-17T22:51:19.508Z,32.97
2018-10-17T22:54:52.774Z,29.13
2018-10-17T22:58:26.090Z,29.07
2018-10-17T23:01:59.345Z,28.10
2018-10-17T23:05:32.589Z,28.47
2018-10-17T23:09:10.349Z,29.97
2018-10-17T23:12:43.575Z,29.60
2018-10-17T23:16:16.824Z,26.70
2018-10-17T23:19:50.074Z,26.10
2018-10-17T23:23:23.308Z,27.13
2018-10-17T23:26:56.558Z,31.53
2018-10-17T23:30:29.802Z,28.70
2018-10-17T23:34:03.067Z,28.07
2018-10-17T23:37:36.325Z,31.73
2018-10-17T23:41:09.580Z,30.17
2018-10-17T23:44:42.882Z,27.83
2018-10-17T23:48:16.202Z,30.23
2018-10-17T23:51:49.363Z,26.87
2018-10-17T23:55:22.605Z,30.30
2018-10-17T23:58:55.852Z,30.37
